Bald Eagle
, Park City
Last Weather Update:04/16/2012 10:00:00 AM
Date
ETo
ETc
Rain
Irrigation
Req
Temp
Max
Temp
Min
Temp
Avg
Avg RH
Avg Wind
Avg Solar
inches
inches
incehs
inches
F
F
F
%
%
watts/m2
03/01/2012 0.04" 0.00" 0.25" -0.20" 23.1° 10.7° 14.7° 95.1% 3.4 MPH 157.5w/m2
03/02/2012 0.04" 0.00" 0.00" 0.00" 16.1° 7.6° 11.4° 81.0% 9.3 MPH 214.5w/m2
03/03/2012 0.04" 0.00" 0.01" -0.01" 30.1° 9.6° 19.2° 84.8% 4.5 MPH 146.8w/m2
03/04/2012 0.08" 0.00" 0.00" 0.00" 41.9° 20.4° 30.0° 23.8% 2.5 MPH 221.8w/m2
03/05/2012 0.12" 0.00" 0.00" 0.00" 48.6° 32.6° 39.3° 31.5% 6.3 MPH 214.1w/m2
03/06/2012 0.08" 0.00" 0.00" 0.00" 40.9° 15.4° 33.5° 95.6% 8.6 MPH 109.6w/m2
03/07/2012 0.03" 0.00" 0.01" -0.01" 25.2° 13.8° 18.2° 75.0% 7.4 MPH 139.2w/m2
03/08/2012 0.08" 0.00" 0.00" 0.00" 40.3° 12.9° 22.7° 33.9% 5.1 MPH 232.1w/m2
03/09/2012 0.10" 0.00" 0.00" 0.00" 47.2° 25.8° 34.4° 26.8% 2.1 MPH 233.6w/m2
03/10/2012 0.11" 0.00" 0.00" 0.00" 51.1° 29.8° 38.8° 41.6% 2.3 MPH 234.8w/m2
03/11/2012 0.11" 0.00" 0.00" 0.00" 45.9° 33.1° 38.1° 42.9% 5.2 MPH 222.3w/m2
03/12/2012 0.12" 0.00" 0.00" 0.00" 47.7° 31.3° 38.0° 33.5% 6.9 MPH 233.9w/m2
03/13/2012 0.12" 0.00" 0.00" 0.00" 45.1° 35.1° 39.4° 48.9% 10.0 MPH 202.1w/m2
03/14/2012 0.10" 0.00" 0.00" 0.00" 45.3° 33.9° 37.9° 58.4% 6.8 MPH 186.9w/m2
03/15/2012 0.12" 0.00" 0.00" 0.00" 51.0° 35.4° 41.7° 44.5% 5.0 MPH 213.3w/m2
03/16/2012 0.12" 0.00" 0.00" 0.00" 50.5° 37.1° 41.8° 46.1% 7.0 MPH 199.1w/m2
03/17/2012 0.04" 0.00" 0.04" -0.03" 42.0° 31.7° 36.6° 75.4% 7.0 MPH 43.8w/m2
03/18/2012 0.03" 0.00" 0.01" -0.01" 34.3° 17.1° 24.4° 96.0% 5.6 MPH 78.8w/m2
03/19/2012 0.02" 0.00" 0.00" 0.00" 25.9° 13.5° 17.0° 89.4% 4.1 MPH 72.6w/m2
03/20/2012 0.06" 0.00" 0.49" -0.39" 31.4° 9.4° 20.4° 77.4% 2.5 MPH 181.2w/m2
03/21/2012 0.10" 0.00" 0.00" 0.00" 46.1° 24.6° 34.2° 48.4% 2.1 MPH 244.2w/m2
03/22/2012 0.15" 0.00" 0.00" 0.00" 54.9° 34.2° 44.2° 34.1% 4.8 MPH 258.9w/m2
03/23/2012 0.14" 0.00" 0.00" 0.00" 52.8° 41.4° 46.3° 31.6% 6.6 MPH 223.4w/m2
03/24/2012 0.12" 0.00" 0.00" 0.00" 56.0° 39.2° 45.8° 43.7% 5.7 MPH 195.8w/m2
03/25/2012 0.11" 0.00" 0.00" 0.00" 54.1° 41.9° 46.4° 29.8% 5.8 MPH 140.0w/m2
03/26/2012 0.05" 0.00" 0.11" -0.09" 45.0° 21.7° 31.5° 65.4% 5.8 MPH 105.7w/m2
03/27/2012 0.09" 0.00" 0.00" 0.00" 44.5° 26.0° 34.7° 41.7% 4.8 MPH 190.9w/m2
03/28/2012 0.11" 0.00" 0.00" 0.00" 47.3° 31.1° 38.0° 66.1% 5.7 MPH 216.5w/m2
03/29/2012 0.10" 0.00" 0.03" -0.02" 46.3° 26.7° 36.2° 51.2% 4.5 MPH 217.6w/m2
03/30/2012 0.13" 0.00" 0.00" 0.00" 52.5° 37.7° 44.5° 49.0% 4.2 MPH 243.8w/m2
03/31/2012 0.18" 0.00" 0.00" 0.00" 58.0° 42.6° 49.5° 31.4% 8.8 MPH 271.9w/m2
Totals: 2.83" 0.00" 0.95" -0.76" 58.0° 7.6° 33.8° 54.6% 5.5 MPH 188.6w/m2